RIPO2: Cimarron River Near Ripley, OK

                                SHEF ID:       RIPO2     Cimarron River near Ripley, OK
STATION TYPE:
Regulating: Stage = 20.00, Flow = 33370

PRECIP ELEVATION STAGE RIV-FLOW AIR-TEMP WIND-DIRWIND-SPEED REL-HUMID VOLTAGE BAT-LOAD
in ft ft cfs F deg mph % volt volt
Ccp-Rev Ccp-Rev Ccp-Rev Ccp-Rev Ccp-Rev Ccp-Rev Ccp-Rev Ccp-Rev Ccp-Rev Ccp-Rev
(America/Chicago)
03/20 00:00 0.00 ---- 7.37 391 145.22 ---- ---- ---- ---- 12.65
03/20 01:00 0.00 ---- 7.38 395 141.44 ---- ---- ---- ---- 12.61
03/20 02:00 0.00 ---- 7.37 391 138.56 ---- ---- ---- ---- 12.60
03/20 03:00 0.00 ---- 7.37 391 136.58 ---- ---- ---- ---- 12.59
03/20 04:00 0.00 ---- 7.37 391 133.52 ---- ---- ---- ---- 12.57
03/20 05:00 0.00 ---- 7.37 391 131.72 ---- ---- ---- ---- 12.54
03/20 06:00 0.00 ---- 7.37 391 128.66 ---- ---- ---- ---- 12.53
03/20 07:00 0.00 ---- 7.36 387 127.22 ---- ---- ---- ---- 12.50
03/20 08:00 0.00 ---- 7.36 387 126.50 ---- ---- ---- ---- 12.49
03/20 09:00 0.00 ---- 7.37 391 131.00 ---- ---- ---- ---- 12.53
03/20 10:00 0.00 ---- 7.36 387 145.04 ---- ---- ---- ---- 13.39
03/20 11:00 0.00 ---- 7.36 387 158.54 ---- ---- ---- ---- 13.51
03/20 12:00 0.00 ---- 7.36 387 167.72 ---- ---- ---- ---- 13.42
03/20 13:00 0.00 ---- 7.32 370 177.80 ---- ---- ---- ---- 13.29
03/20 14:00 0.00 ---- 7.35 382 187.52 ---- ---- ---- ---- 13.17
03/20 15:00 0.00 ---- 7.28 353 193.46 ---- ---- ---- ---- 13.14
03/20 16:00 0.00 ---- 7.32 370 197.60 ---- ---- ---- ---- 13.10
03/20 17:00 0.00 ---- 7.30 361 199.76 ---- ---- ---- ---- 13.06
03/20 18:00 0.00 ---- 7.35 382 200.12 ---- ---- ---- ---- 13.03
03/20 19:00 0.00 ---- 7.36 387 197.06 ---- ---- ---- ---- 13.03
03/20 20:00 0.00 ---- 7.36 387 188.42 ---- ---- ---- ---- 13.09
03/20 21:00 0.00 ---- 7.36 387 177.80 ---- ---- ---- ---- 12.87
03/20 22:00 0.00 ---- 7.36 387 170.24 ---- ---- ---- ---- 12.74
03/20 23:00 0.00 ---- 7.37 391 167.00 ---- ---- ---- ---- 12.67
Data processed at Sat 21Mar2026 04:02 GMT

NOTICE: If you are parsing this page

Please convert to using our Data API. Starting early 2026 we will be migrating to: https://water.usace.army.mil with modern pages rendered in JavaScript. When this migration completes you will no longer be able to scrape this page! CWMSDataAPI (CDA)

Timeseries IDs (TSIDs)

TSIDs used from left to right in the data table
RIPL.Precip-Inc.Total.1Hour.1Hour.Ccp-Rev
RIPL.Stage.Inst.1Hour.0.Ccp-Rev
RIPL.Flow.Inst.1Hour.0.Ccp-Rev
RIPL.Temp-Air.Inst.1Hour.0.Ccp-Rev
RIPL.Dir-Wind.Inst.1Hour.0.Ccp-Rev
RIPL.Speed-Wind.Inst.1Hour.0.Ccp-Rev
RIPL.%-Humidity.Inst.1Hour.0.Ccp-Rev
RIPL.Volt-Battery.Inst.1Hour.0.Ccp-Rev
RIPL.Volt-Battery Load.Inst.1Hour.0.Ccp-Rev

                            

All information presented herein is the property of the government of the United States of America and may be revised or deleted at any time without prior notice. Dissemination of this information without the expressed written consent of the Public Affairs Office, Tulsa District U.S. Army Corps of Engineers is strictly prohibited. These data are gathered electronically and, as presented, have NOT undergone any form of quality control. These data are NOT guaranteed to be valid or correct.